createdAt,value
2023-11-02T00:01:53.243Z,95663.19
2023-11-02T00:04:21.921Z,95646.81
2023-11-02T00:06:51.259Z,95640.34
2023-11-02T00:09:35.433Z,95629.81
2023-11-02T00:12:05.635Z,95634.56
2023-11-02T00:14:39.417Z,95630.94
2023-11-02T00:17:28.928Z,95649.53
2023-11-02T00:19:57.384Z,95654.56
2023-11-02T00:22:25.740Z,95644.81
2023-11-02T00:24:55.539Z,95643.41
2023-11-02T00:27:24.075Z,95640.72
2023-11-02T00:29:52.608Z,95632.06
2023-11-02T00:32:22.350Z,95618.06
2023-11-02T00:34:50.893Z,95613.19
2023-11-02T00:37:19.627Z,95607.50
2023-11-02T00:39:48.210Z,95600.56
2023-11-02T00:42:18.209Z,95591.44
2023-11-02T00:44:48.558Z,95593.03
2023-11-02T00:47:18.195Z,95578.38
2023-11-02T00:49:48.932Z,95575.88
2023-11-02T00:52:25.277Z,95591.28
2023-11-02T00:54:57.602Z,95587.06
2023-11-02T00:57:29.943Z,95569.53
2023-11-02T00:59:59.497Z,95566.88
2023-11-02T01:02:37.324Z,95569.69
2023-11-02T01:05:07.785Z,95577.56
2023-11-02T01:07:36.337Z,95571.59
2023-11-02T01:10:07.188Z,95575.69
2023-11-02T01:12:38.510Z,95572.38
2023-11-02T01:15:09.739Z,95562.47
2023-11-02T01:17:40.813Z,95560.09
2023-11-02T01:20:11.664Z,95562.94
2023-11-02T01:22:56.588Z,95567.50
2023-11-02T01:25:27.363Z,95563.88
2023-11-02T01:28:02.132Z,95554.59
2023-11-02T01:31:14.856Z,95542.31
2023-11-02T01:34:03.488Z,95536.78
2023-11-02T01:36:34.824Z,95532.06
2023-11-02T01:39:31.323Z,95519.63
2023-11-02T01:42:07.405Z,95510.38
2023-11-02T01:44:43.369Z,95502.66
2023-11-02T01:47:21.450Z,95497.94
2023-11-02T01:49:58.298Z,95485.19
2023-11-02T01:52:42.002Z,95479.22
2023-11-02T01:55:15.906Z,95477.34
2023-11-02T01:57:54.096Z,95471.19
2023-11-02T02:00:25.716Z,95471.84
2023-11-02T02:02:59.387Z,95463.19
2023-11-02T02:05:32.550Z,95463.34
2023-11-02T02:08:06.268Z,95457.06
2023-11-02T02:10:47.831Z,95454.09
2023-11-02T02:13:29.630Z,95445.72
2023-11-02T02:16:09.547Z,95437.53
2023-11-02T02:18:45.832Z,95428.09
2023-11-02T02:21:18.498Z,95418.84
2023-11-02T02:23:51.071Z,95410.78
2023-11-02T02:26:34.360Z,95403.41
2023-11-02T02:29:20.170Z,95402.03
2023-11-02T02:32:04.021Z,95392.09
2023-11-02T02:34:57.147Z,95384.09
2023-11-02T02:37:30.527Z,95380.97
2023-11-02T02:40:04.318Z,95377.81
2023-11-02T02:42:33.103Z,95370.28
2023-11-02T02:45:03.587Z,95366.19
2023-11-02T02:47:33.607Z,95357.69
2023-11-02T02:50:04.357Z,95353.00
2023-11-02T02:52:33.948Z,95345.44
2023-11-02T02:55:04.307Z,95329.91
2023-11-02T02:57:33.998Z,95309.50
2023-11-02T03:00:03.661Z,95311.84
2023-11-02T03:02:33.782Z,95311.38
2023-11-02T03:05:03.959Z,95314.19
2023-11-02T03:07:33.890Z,95312.47
2023-11-02T03:10:04.736Z,95317.47
2023-11-02T03:12:36.007Z,95314.97
2023-11-02T03:15:08.119Z,95309.63
2023-11-02T03:17:46.574Z,95305.72
2023-11-02T03:20:17.679Z,95312.00
2023-11-02T03:22:46.972Z,95306.19
2023-11-02T03:25:21.032Z,95286.38
2023-11-02T03:28:01.474Z,95280.13
2023-11-02T03:30:38.870Z,95281.69
2023-11-02T03:33:13.686Z,95287.63
2023-11-02T03:35:45.783Z,95283.72
2023-11-02T03:38:21.391Z,95276.19
2023-11-02T03:41:01.434Z,95281.06
2023-11-02T03:43:33.244Z,95275.53
2023-11-02T03:46:23.506Z,95287.50
2023-11-02T03:48:57.403Z,95282.63
2023-11-02T03:51:38.631Z,95262.50
2023-11-02T03:54:16.106Z,95242.41
2023-11-02T03:56:58.139Z,95246.63
2023-11-02T03:59:34.261Z,95242.28
2023-11-02T04:02:06.333Z,95230.19
2023-11-02T04:04:39.487Z,95221.38
2023-11-02T04:07:17.736Z,95216.06
2023-11-02T04:09:51.269Z,95214.00
2023-11-02T04:12:33.649Z,95203.34
2023-11-02T04:15:02.810Z,95190.31
2023-11-02T04:17:32.536Z,95182.31
2023-11-02T04:20:02.405Z,95162.69
2023-11-02T04:22:32.243Z,95152.47
2023-11-02T04:25:00.495Z,95143.38
2023-11-02T04:27:28.857Z,95129.44
2023-11-02T04:29:57.288Z,95130.22
2023-11-02T04:32:25.835Z,95119.38
2023-11-02T04:34:54.355Z,95118.28
2023-11-02T04:37:22.828Z,95105.88
2023-11-02T04:39:52.516Z,95100.53
2023-11-02T04:42:22.553Z,95100.53
2023-11-02T04:44:53.117Z,95084.53
2023-11-02T04:47:21.741Z,95087.06
2023-11-02T04:49:50.172Z,95077.78
2023-11-02T04:52:18.508Z,95063.53
2023-11-02T04:54:46.962Z,95055.19
2023-11-02T04:57:17.135Z,95048.31
2023-11-02T04:59:46.293Z,95048.63
2023-11-02T05:02:15.388Z,95039.19
2023-11-02T05:04:43.829Z,95025.84
2023-11-02T05:07:12.514Z,95015.16
2023-11-02T05:09:40.894Z,95003.41
2023-11-02T05:12:09.422Z,95004.50
2023-11-02T05:14:39.226Z,94995.88
2023-11-02T05:17:07.935Z,94995.88
2023-11-02T05:19:39.046Z,94991.97
2023-11-02T05:22:08.743Z,94984.44
2023-11-02T05:24:38.287Z,94977.84
2023-11-02T05:27:07.671Z,94978.34
2023-11-02T05:29:36.184Z,94976.91
2023-11-02T05:32:06.890Z,94977.06
2023-11-02T05:34:35.445Z,94971.84
2023-11-02T05:37:05.653Z,94973.13
2023-11-02T05:39:34.012Z,94962.75
2023-11-02T05:42:02.376Z,94956.31
2023-11-02T05:44:31.244Z,94955.53
2023-11-02T05:47:00.146Z,94950.66
2023-11-02T05:49:30.117Z,94961.47
2023-11-02T05:51:58.479Z,94966.94
2023-11-02T05:54:26.869Z,94960.19
2023-11-02T05:56:55.269Z,94952.63
2023-11-02T05:59:24.280Z,94958.44
2023-11-02T06:01:52.530Z,94969.59
2023-11-02T06:04:20.891Z,94967.38
2023-11-02T06:06:51.270Z,94957.94
2023-11-02T06:09:19.613Z,94946.19
2023-11-02T06:11:48.050Z,94952.13
2023-11-02T06:14:16.499Z,94961.88
2023-11-02T06:16:45.356Z,94958.88
2023-11-02T06:19:16.136Z,94946.47
2023-11-02T06:21:44.631Z,94941.25
2023-11-02T06:24:14.429Z,94933.25
2023-11-02T06:26:43.240Z,94913.13
2023-11-02T06:29:11.900Z,94893.97
2023-11-02T06:31:40.284Z,94882.31
2023-11-02T06:34:11.359Z,94885.38
2023-11-02T06:36:40.262Z,94882.06
2023-11-02T06:39:09.749Z,94901.22
2023-11-02T06:41:40.064Z,94898.34
2023-11-02T06:44:08.402Z,94894.25
2023-11-02T06:46:36.914Z,94889.50
2023-11-02T06:49:06.282Z,94880.84
2023-11-02T06:51:34.668Z,94858.06
2023-11-02T06:54:03.048Z,94844.25
2023-11-02T06:56:31.586Z,94819.09
2023-11-02T06:59:01.653Z,94810.78
2023-11-02T07:01:30.664Z,94805.28
2023-11-02T07:03:59.576Z,94773.25
2023-11-02T07:06:27.999Z,94782.63
2023-11-02T07:08:56.745Z,94765.19
2023-11-02T07:11:25.231Z,94747.72
2023-11-02T07:13:54.035Z,94747.84
2023-11-02T07:16:24.242Z,94747.16
2023-11-02T07:19:02.801Z,94750.31
2023-11-02T07:21:31.604Z,94749.66
2023-11-02T07:24:00.546Z,94742.75
2023-11-02T07:26:30.575Z,94761.44
2023-11-02T07:28:59.964Z,94780.16
2023-11-02T07:31:30.504Z,94787.94
2023-11-02T07:33:59.105Z,94804.22
2023-11-02T07:36:28.623Z,94784.66
2023-11-02T07:38:57.352Z,94786.78
2023-11-02T07:41:26.044Z,94769.00
2023-11-02T07:43:54.540Z,94739.25
2023-11-02T07:46:23.225Z,94728.34
2023-11-02T07:48:53.914Z,94721.09
2023-11-02T07:51:25.254Z,94725.03
2023-11-02T07:53:53.838Z,94729.03
2023-11-02T07:56:23.268Z,94733.06
2023-11-02T07:58:52.417Z,94721.69
2023-11-02T08:01:21.281Z,94732.50
2023-11-02T08:03:49.981Z,94739.19
2023-11-02T08:06:20.290Z,94753.53
2023-11-02T08:08:48.862Z,94754.88
2023-11-02T08:11:17.442Z,94756.91
2023-11-02T08:13:47.279Z,94754.00
2023-11-02T08:16:22.142Z,94732.84
2023-11-02T08:18:51.007Z,94715.47
2023-11-02T08:21:21.261Z,94707.22
2023-11-02T08:23:49.771Z,94684.44
2023-11-02T08:26:18.710Z,94679.56
2023-11-02T08:28:47.071Z,94686.09
2023-11-02T08:31:15.754Z,94665.25
2023-11-02T08:33:44.320Z,94676.50
2023-11-02T08:36:16.323Z,94685.06
2023-11-02T08:38:47.040Z,94675.47
2023-11-02T08:41:22.490Z,94670.38
2023-11-02T08:43:51.782Z,94669.34
2023-11-02T08:46:22.119Z,94668.44
2023-11-02T08:48:51.617Z,94675.97
2023-11-02T08:51:21.519Z,94678.06
2023-11-02T08:53:51.966Z,94677.22
2023-11-02T08:56:21.228Z,94661.59
2023-11-02T08:58:52.034Z,94665.56
2023-11-02T09:01:24.045Z,94655.72
2023-11-02T09:03:53.031Z,94657.03
2023-11-02T09:06:22.947Z,94661.44
2023-11-02T09:08:54.842Z,94650.00
2023-11-02T09:11:23.624Z,94645.69
2023-11-02T09:13:52.122Z,94659.59
2023-11-02T09:16:20.861Z,94659.44
2023-11-02T09:18:53.127Z,94651.97
2023-11-02T09:21:22.176Z,94654.81
2023-11-02T09:23:52.246Z,94636.56
2023-11-02T09:26:21.790Z,94609.13
2023-11-02T09:28:51.024Z,94602.63
2023-11-02T09:31:19.442Z,94590.53
2023-11-02T09:33:48.457Z,94600.47
2023-11-02T09:36:18.603Z,94626.69
2023-11-02T09:38:47.018Z,94616.44
2023-11-02T09:41:17.204Z,94579.66
2023-11-02T09:43:45.657Z,94591.03
2023-11-02T09:46:14.684Z,94568.78
2023-11-02T09:48:43.595Z,94568.94
2023-11-02T09:51:13.678Z,94581.91
2023-11-02T09:53:42.101Z,94580.06
2023-11-02T09:56:10.896Z,94574.34
2023-11-02T09:58:41.978Z,94565.22
2023-11-02T10:01:13.024Z,94565.66
2023-11-02T10:03:43.562Z,94576.41
2023-11-02T10:06:12.861Z,94558.44
2023-11-02T10:08:41.921Z,94549.41
2023-11-02T10:11:12.677Z,94549.13
2023-11-02T10:13:42.964Z,94548.50
2023-11-02T10:16:11.837Z,94542.03
2023-11-02T10:18:40.901Z,94546.00
2023-11-02T10:21:10.522Z,94545.31
2023-11-02T10:23:51.782Z,94539.63
2023-11-02T10:26:20.829Z,94514.72
2023-11-02T10:28:51.864Z,94519.84
2023-11-02T10:31:21.197Z,94514.84
2023-11-02T10:33:52.779Z,94506.50
2023-11-02T10:36:22.596Z,94497.66
2023-11-02T10:38:51.928Z,94492.38
2023-11-02T10:41:21.118Z,94495.09
2023-11-02T10:43:51.307Z,94499.81
2023-11-02T10:46:21.869Z,94487.97
2023-11-02T10:48:55.153Z,94481.53
2023-11-02T10:51:26.516Z,94480.38
2023-11-02T10:54:08.705Z,94474.72
2023-11-02T10:56:44.728Z,94475.44
2023-11-02T10:59:15.731Z,94460.97
2023-11-02T11:01:44.308Z,94444.78
2023-11-02T11:04:13.190Z,94425.56
2023-11-02T11:06:44.826Z,94403.28
2023-11-02T11:09:14.250Z,94380.13
2023-11-02T11:11:43.144Z,94373.28
2023-11-02T11:14:11.603Z,94373.84
2023-11-02T11:16:42.963Z,94374.63
2023-11-02T11:19:12.568Z,94380.81
2023-11-02T11:21:42.633Z,94396.25
2023-11-02T11:24:18.052Z,94397.69
2023-11-02T11:26:48.928Z,94395.78
2023-11-02T11:29:39.511Z,94409.28
2023-11-02T11:32:10.454Z,94407.13
2023-11-02T11:35:07.170Z,94412.91
2023-11-02T11:37:38.616Z,94416.00
2023-11-02T11:40:11.481Z,94417.22
2023-11-02T11:43:02.127Z,94416.91
2023-11-02T11:45:32.962Z,94396.19
2023-11-02T11:48:04.005Z,94391.19
2023-11-02T11:50:37.188Z,94382.72
2023-11-02T11:53:16.417Z,94383.84
2023-11-02T11:55:45.994Z,94375.00
2023-11-02T11:58:15.353Z,94374.28
2023-11-02T12:01:17.110Z,94386.59
2023-11-02T12:03:50.304Z,94398.41
2023-11-02T12:06:38.950Z,94389.13
2023-11-02T12:09:11.284Z,94384.88
2023-11-02T12:11:40.587Z,94399.16
2023-11-02T12:14:14.582Z,94416.41
2023-11-02T12:16:43.689Z,94414.72
2023-11-02T12:19:13.804Z,94399.72
2023-11-02T12:21:42.804Z,94437.00
2023-11-02T12:24:13.434Z,94435.94
2023-11-02T12:26:42.239Z,94428.81
2023-11-02T12:29:12.305Z,94453.22
2023-11-02T12:31:42.948Z,94443.06
2023-11-02T12:34:14.048Z,94433.94
2023-11-02T12:36:45.021Z,94417.03
2023-11-02T12:39:16.333Z,94416.41
2023-11-02T12:41:48.952Z,94438.75
2023-11-02T12:44:21.434Z,94436.16
2023-11-02T12:46:54.061Z,94452.50
2023-11-02T12:49:26.610Z,94505.81
2023-11-02T12:52:08.369Z,94496.53
2023-11-02T12:54:38.234Z,94523.41
2023-11-02T12:57:08.139Z,94522.31
2023-11-02T12:59:41.596Z,94517.66
2023-11-02T13:02:12.770Z,94511.09
2023-11-02T13:04:54.223Z,94520.66
2023-11-02T13:07:24.354Z,94534.16
2023-11-02T13:10:03.848Z,94545.75
2023-11-02T13:12:35.853Z,94544.84
2023-11-02T13:15:09.513Z,94550.53
2023-11-02T13:17:40.421Z,94561.38
2023-11-02T13:20:11.954Z,94556.63
2023-11-02T13:22:40.764Z,94562.56
2023-11-02T13:25:09.546Z,94566.16
2023-11-02T13:27:38.931Z,94575.84
2023-11-02T13:30:10.919Z,94578.75
2023-11-02T13:32:40.766Z,94576.75
2023-11-02T13:35:11.277Z,94576.56
2023-11-02T13:37:40.284Z,94574.16
2023-11-02T13:40:11.703Z,94579.09
2023-11-02T13:42:42.529Z,94575.13
2023-11-02T13:45:12.508Z,94550.53
2023-11-02T13:47:43.124Z,94552.41
2023-11-02T13:50:15.310Z,94552.53
2023-11-02T13:52:45.060Z,94570.59
2023-11-02T13:55:15.012Z,94569.63
2023-11-02T13:57:43.877Z,94559.88
2023-11-02T14:00:16.760Z,94559.88
2023-11-02T14:02:45.846Z,94547.47
2023-11-02T14:05:16.516Z,94551.13
2023-11-02T14:07:46.462Z,94541.22
2023-11-02T14:10:16.647Z,94541.81
2023-11-02T14:12:45.366Z,94543.41
2023-11-02T14:15:14.019Z,94532.16
2023-11-02T14:17:42.654Z,94535.84
2023-11-02T14:20:12.227Z,94537.94
2023-11-02T14:22:42.465Z,94533.59
2023-11-02T14:25:11.435Z,94530.59
2023-11-02T14:27:40.179Z,94524.22
2023-11-02T14:30:10.033Z,94532.41
2023-11-02T14:32:38.711Z,94539.38
2023-11-02T14:35:07.671Z,94543.28
2023-11-02T14:37:36.454Z,94553.69
2023-11-02T14:40:10.466Z,94557.00
2023-11-02T14:42:39.458Z,94556.06
2023-11-02T14:45:10.219Z,94553.16
2023-11-02T14:47:38.959Z,94554.09
2023-11-02T14:50:08.273Z,94550.16
2023-11-02T14:52:39.152Z,94553.38
2023-11-02T14:55:11.840Z,94551.66
2023-11-02T14:57:40.332Z,94553.22
2023-11-02T15:00:13.674Z,94554.44
2023-11-02T15:02:42.532Z,94548.88
2023-11-02T15:05:12.297Z,94544.19
2023-11-02T15:07:41.267Z,94536.41
2023-11-02T15:10:12.519Z,94527.41
2023-11-02T15:12:42.488Z,94525.56
2023-11-02T15:15:13.653Z,94521.78
2023-11-02T15:17:42.414Z,94522.97
2023-11-02T15:20:13.988Z,94526.78
2023-11-02T15:22:43.672Z,94526.91
2023-11-02T15:25:13.535Z,94538.97
2023-11-02T15:27:43.598Z,94532.91
2023-11-02T15:30:14.044Z,94529.22
2023-11-02T15:32:43.074Z,94529.06
2023-11-02T15:35:11.401Z,94523.31
2023-11-02T15:37:40.329Z,94511.22
2023-11-02T15:40:09.685Z,94493.78
2023-11-02T15:42:40.087Z,94506.97
2023-11-02T15:45:11.149Z,94499.84
2023-11-02T15:47:40.236Z,94501.19
2023-11-02T15:50:09.977Z,94502.38
2023-11-02T15:52:44.866Z,94493.19
2023-11-02T15:55:15.738Z,94496.31
2023-11-02T15:57:47.642Z,94493.25
2023-11-02T16:00:18.382Z,94498.28
2023-11-02T16:02:48.398Z,94487.06
2023-11-02T16:05:18.915Z,94485.09
2023-11-02T16:07:48.769Z,94485.44
2023-11-02T16:10:17.628Z,94496.19
2023-11-02T16:12:48.613Z,94497.72
2023-11-02T16:15:18.720Z,94490.03
2023-11-02T16:17:48.478Z,94498.03
2023-11-02T16:20:19.659Z,94493.34
2023-11-02T16:22:49.192Z,94478.38
2023-11-02T16:25:19.640Z,94467.63
2023-11-02T16:27:50.351Z,94470.69
2023-11-02T16:30:19.017Z,94454.09
2023-11-02T16:32:47.457Z,94444.50
2023-11-02T16:35:28.787Z,94440.66
2023-11-02T16:38:02.458Z,94450.72
2023-11-02T16:40:30.968Z,94455.25
2023-11-02T16:43:02.887Z,94464.81
2023-11-02T16:45:31.552Z,94478.94
2023-11-02T16:48:00.496Z,94490.78
2023-11-02T16:50:29.254Z,94489.38
2023-11-02T16:52:57.896Z,94484.88
2023-11-02T16:55:26.909Z,94486.47
2023-11-02T16:57:55.390Z,94491.91
2023-11-02T17:00:26.341Z,94489.59
2023-11-02T17:02:54.965Z,94478.09
2023-11-02T17:05:23.630Z,94465.81
2023-11-02T17:07:52.081Z,94474.53
2023-11-02T17:10:20.870Z,94474.13
2023-11-02T17:12:53.729Z,94464.19
2023-11-02T17:15:22.110Z,94445.31
2023-11-02T17:17:52.690Z,94441.81
2023-11-02T17:20:22.109Z,94428.81
2023-11-02T17:22:51.477Z,94423.47
2023-11-02T17:25:20.005Z,94421.13
2023-11-02T17:27:48.562Z,94417.22
2023-11-02T17:30:17.245Z,94405.22
2023-11-02T17:32:45.981Z,94402.56
2023-11-02T17:35:16.395Z,94407.63
2023-11-02T17:37:44.963Z,94421.75
2023-11-02T17:40:14.979Z,94431.38
2023-11-02T17:42:43.526Z,94420.91
2023-11-02T17:45:12.804Z,94420.84
2023-11-02T17:47:41.322Z,94414.41
2023-11-02T17:50:10.558Z,94414.00
2023-11-02T17:52:40.634Z,94423.88
2023-11-02T17:55:09.985Z,94421.47
2023-11-02T17:57:38.759Z,94407.91
2023-11-02T18:00:09.289Z,94405.59
2023-11-02T18:02:40.803Z,94403.69
2023-11-02T18:05:09.894Z,94389.88
2023-11-02T18:07:38.711Z,94389.81
2023-11-02T18:10:11.214Z,94382.88
2023-11-02T18:12:40.525Z,94388.94
2023-11-02T18:15:10.720Z,94369.69
2023-11-02T18:17:39.220Z,94361.31
2023-11-02T18:20:10.333Z,94370.53
2023-11-02T18:22:38.876Z,94379.78
2023-11-02T18:25:10.072Z,94384.31
2023-11-02T18:27:40.582Z,94383.09
2023-11-02T18:30:10.920Z,94384.84
2023-11-02T18:32:39.993Z,94389.44
2023-11-02T18:35:10.275Z,94405.00
2023-11-02T18:37:39.445Z,94397.06
2023-11-02T18:40:11.147Z,94390.56
2023-11-02T18:42:39.570Z,94374.56
2023-11-02T18:45:11.784Z,94362.66
2023-11-02T18:47:40.945Z,94357.19
2023-11-02T18:50:10.996Z,94365.66
2023-11-02T18:52:42.268Z,94372.66
2023-11-02T18:55:12.933Z,94389.00
2023-11-02T18:57:41.379Z,94389.56
2023-11-02T19:00:10.966Z,94393.66
2023-11-02T19:02:40.472Z,94403.94
2023-11-02T19:05:11.657Z,94424.94
2023-11-02T19:07:43.442Z,94441.28
2023-11-02T19:10:17.055Z,94458.91
2023-11-02T19:12:45.696Z,94474.13
2023-11-02T19:15:15.254Z,94484.34
2023-11-02T19:17:44.308Z,94485.81
2023-11-02T19:20:13.175Z,94471.19
2023-11-02T19:22:41.519Z,94466.63
2023-11-02T19:25:10.271Z,94454.50
2023-11-02T19:27:40.679Z,94440.28
2023-11-02T19:30:11.162Z,94450.38
2023-11-02T19:32:39.910Z,94452.28
2023-11-02T19:35:09.626Z,94462.22
2023-11-02T19:37:40.252Z,94472.69
2023-11-02T19:40:12.348Z,94481.56
2023-11-02T19:42:42.486Z,94461.25
2023-11-02T19:45:12.187Z,94473.78
2023-11-02T19:47:41.157Z,94487.38
2023-11-02T19:50:13.796Z,94486.41
2023-11-02T19:52:43.712Z,94488.66
2023-11-02T19:55:12.307Z,94470.28
2023-11-02T19:57:44.039Z,94460.66
2023-11-02T20:00:13.739Z,94450.41
2023-11-02T20:02:43.810Z,94454.81
2023-11-02T20:05:12.764Z,94443.06
2023-11-02T20:07:41.675Z,94451.19
2023-11-02T20:10:11.712Z,94450.84
2023-11-02T20:12:40.487Z,94441.59
2023-11-02T20:15:12.707Z,94439.16
2023-11-02T20:17:41.764Z,94441.69
2023-11-02T20:20:11.785Z,94438.84
2023-11-02T20:22:40.406Z,94456.53
2023-11-02T20:25:09.544Z,94471.13
2023-11-02T20:27:37.909Z,94459.63
2023-11-02T20:30:07.257Z,94455.94
2023-11-02T20:32:36.913Z,94462.06
2023-11-02T20:35:05.771Z,94449.88
2023-11-02T20:37:34.142Z,94433.38
2023-11-02T20:40:07.340Z,94436.06
2023-11-02T20:42:36.359Z,94445.38
2023-11-02T20:45:07.667Z,94453.84
2023-11-02T20:47:38.176Z,94453.84
2023-11-02T20:50:07.313Z,94439.88
2023-11-02T20:52:35.955Z,94436.06
2023-11-02T20:55:04.527Z,94421.91
2023-11-02T20:57:33.121Z,94420.00
2023-11-02T21:00:02.239Z,94409.81
2023-11-02T21:02:30.865Z,94408.00
2023-11-02T21:05:00.749Z,94411.31
2023-11-02T21:07:29.579Z,94415.44
2023-11-02T21:09:57.985Z,94399.63
2023-11-02T21:12:26.494Z,94398.53
2023-11-02T21:14:55.144Z,94392.19
2023-11-02T21:17:23.694Z,94372.34
2023-11-02T21:19:52.694Z,94341.78
2023-11-02T21:22:23.052Z,94330.38
2023-11-02T21:24:55.121Z,94332.28
2023-11-02T21:27:24.480Z,94324.41
2023-11-02T21:29:52.982Z,94313.97
2023-11-02T21:32:21.355Z,94296.63
2023-11-02T21:34:49.885Z,94295.16
2023-11-02T21:37:19.092Z,94302.97
2023-11-02T21:39:49.124Z,94312.16
2023-11-02T21:42:17.614Z,94316.53
2023-11-02T21:44:47.957Z,94312.28
2023-11-02T21:47:16.395Z,94318.81
2023-11-02T21:49:45.423Z,94328.28
2023-11-02T21:52:14.254Z,94359.03
2023-11-02T21:54:42.789Z,94358.19
2023-11-02T21:57:12.582Z,94362.81
2023-11-02T21:59:41.764Z,94360.06
2023-11-02T22:02:10.144Z,94374.75
2023-11-02T22:04:39.152Z,94382.78
2023-11-02T22:07:08.253Z,94373.81
2023-11-02T22:09:36.825Z,94359.03
2023-11-02T22:12:05.920Z,94360.59
2023-11-02T22:14:39.709Z,94347.13
2023-11-02T22:17:08.203Z,94349.53
2023-11-02T22:19:36.565Z,94348.44
2023-11-02T22:22:05.359Z,94343.91
2023-11-02T22:24:34.085Z,94311.94
2023-11-02T22:27:03.935Z,94274.81
2023-11-02T22:29:32.776Z,94284.06
2023-11-02T22:32:02.988Z,94300.19
2023-11-02T22:34:32.447Z,94294.69
2023-11-02T22:37:02.412Z,94302.72
2023-11-02T22:39:31.065Z,94293.84
2023-11-02T22:41:59.747Z,94308.81
2023-11-02T22:44:28.365Z,94334.44
2023-11-02T22:46:56.873Z,94353.09
2023-11-02T22:49:26.891Z,94360.19
2023-11-02T22:51:56.511Z,94354.91
2023-11-02T22:54:25.175Z,94356.28
2023-11-02T22:56:54.697Z,94344.81
2023-11-02T22:59:23.509Z,94342.06
2023-11-02T23:01:55.659Z,94354.06
2023-11-02T23:04:24.858Z,94326.69
2023-11-02T23:06:55.246Z,94307.53
2023-11-02T23:09:24.201Z,94297.34
2023-11-02T23:11:55.576Z,94276.78
2023-11-02T23:14:24.116Z,94281.34
2023-11-02T23:16:52.799Z,94281.28
2023-11-02T23:19:21.335Z,94276.72
2023-11-02T23:21:49.711Z,94284.03
2023-11-02T23:24:20.153Z,94305.00
2023-11-02T23:26:48.564Z,94320.31
2023-11-02T23:29:17.137Z,94317.81
2023-11-02T23:31:45.763Z,94327.78
2023-11-02T23:34:14.253Z,94335.94
2023-11-02T23:36:42.877Z,94354.72
2023-11-02T23:39:11.723Z,94364.69
2023-11-02T23:41:43.180Z,94362.00
2023-11-02T23:44:12.652Z,94348.72
2023-11-02T23:46:42.137Z,94351.91
2023-11-02T23:49:11.722Z,94348.78
2023-11-02T23:51:40.322Z,94328.44
2023-11-02T23:54:09.210Z,94318.78
2023-11-02T23:56:37.696Z,94313.72
2023-11-02T23:59:07.928Z,94297.69
